ilmateenistus.ee keskkonnaagentuur.ee
EETN Таллинн
FTEO31 EETN 130500
TAF EETN 130515Z 1306/1406 07012KT 9999 SCT008 BKN020 TEMPO 1306/1316
    2000 SHSNRA BKN006 SCT012CB OVC015 TEMPO 1320/1406 2000 SHSN BKN008
    SCT012CB BKN020 PROB30 TEMPO 1403/1406 -FZDZ=

METAR EETN 130550Z 07012KT 030V090 9000 -SN OVC011 01/M01 Q1030 R08/550395 NOSIG=
Таллинн
EEKA Кярдла
FCEO32 EETN 130400
TAF EEKA 130400Z 1305/1311 06015KT 9999 BKN012 OVC020 TEMPO 1305/1311
    2000 SHSNRA BKN006 SCT015CB BKN020=

METAR EEKA 130550Z 05008KT 010V100 9999 FEW009 SCT023 02/00 Q1030=
Кярдла
EEKE Курессааре
METAR EEKE 130550Z 04009KT 010V070 9999 -SN BKN013 OVC016 00/M01 Q1029 R17/490095=
Курессааре
EEPU Пярну
METAR EEPU 130550Z NIL=
Пярну
EETU Тарту
METAR EETU 130550Z AUTO 06009KT 4100 -SN OVC005/// M01/M01 Q1028=
Тарту
EEEI Эмари
METAR EEEI 130550Z 04008KT 9999 -SN FEW008 OVC016 01/M00 Q1030 R06/190095 NOSIG=
Эмари